Terminal Aerodrome Forecast
Issued by NWS

Home | Current Version | Previous Version | Text Only | Print | Product List | Glossary On
Versions: 1 2 3 4 5 6 7 8 9 10 11 12 13
158
FTUS46 KHNX 232341
TAFMER
TAF
KMER 232341Z 2400/2424 32007KT P6SM BKN035
     FM240100 VRB04KT P6SM SCT035 BKN050
     FM240800 VRB03KT P6SM BKN100
      TEMPO 2412/2416 4SM BR BKN005
     FM242200 35005KT P6SM SCT250=

USA.gov is the U.S. government's official web portal to all federal, state and local government web resources and services.